createdAt,value
2019-02-04T00:00:50.577Z,100384.00
2019-02-04T00:03:22.009Z,100383.00
2019-02-04T00:05:51.512Z,100386.00
2019-02-04T00:08:21.204Z,100390.00
2019-02-04T00:10:50.524Z,100394.00
2019-02-04T00:13:19.824Z,100400.00
2019-02-04T00:15:49.227Z,100397.00
2019-02-04T00:18:20.977Z,100404.00
2019-02-04T00:20:50.297Z,100409.00
2019-02-04T00:23:20.090Z,100415.00
2019-02-04T00:25:49.707Z,100422.00
2019-02-04T00:28:18.907Z,100428.00
2019-02-04T00:30:48.415Z,100422.00
2019-02-04T00:33:18.029Z,100425.00
2019-02-04T00:35:47.631Z,100427.00
2019-02-04T00:38:17.042Z,100439.00
2019-02-04T00:40:46.539Z,100432.00
2019-02-04T00:43:15.929Z,100433.00
2019-02-04T00:45:45.265Z,100433.00
2019-02-04T00:48:14.637Z,100451.00
2019-02-04T00:50:43.954Z,100443.00
2019-02-04T00:53:13.221Z,100449.00
2019-02-04T00:55:42.556Z,100455.00
2019-02-04T00:58:12.051Z,100451.00
2019-02-04T01:00:41.464Z,100457.00
2019-02-04T01:03:11.264Z,100464.00
2019-02-04T01:05:40.778Z,100468.00
2019-02-04T01:08:10.190Z,100462.00
2019-02-04T01:10:39.863Z,100472.00
2019-02-04T01:13:09.204Z,100466.00
2019-02-04T01:15:42.093Z,100471.00
2019-02-04T01:18:11.584Z,100470.00
2019-02-04T01:20:40.895Z,100474.00
2019-02-04T01:23:10.305Z,100476.00
2019-02-04T01:25:39.499Z,100480.00
2019-02-04T01:28:08.700Z,100483.00
2019-02-04T01:30:38.189Z,100486.00
2019-02-04T01:33:26.952Z,100479.00
2019-02-04T01:35:56.266Z,100483.00
2019-02-04T01:38:25.761Z,100494.00
2019-02-04T01:40:55.261Z,100495.00
2019-02-04T01:43:24.486Z,100503.00
2019-02-04T01:45:53.674Z,100502.00
2019-02-04T01:48:22.976Z,100505.00
2019-02-04T01:50:52.175Z,100504.00
2019-02-04T01:53:21.567Z,100506.00
2019-02-04T01:55:51.290Z,100511.00
2019-02-04T01:58:21.813Z,100519.00
2019-02-04T02:00:51.122Z,100514.00
2019-02-04T02:03:20.651Z,100519.00
2019-02-04T02:05:50.144Z,100527.00
2019-02-04T02:08:19.539Z,100529.00
2019-02-04T02:10:49.032Z,100527.00
2019-02-04T02:13:18.639Z,100533.00
2019-02-04T02:15:47.832Z,100523.00
2019-02-04T02:18:17.155Z,100524.00
2019-02-04T02:20:46.684Z,100535.00
2019-02-04T02:23:16.275Z,100517.00
2019-02-04T02:25:45.597Z,100535.00
2019-02-04T02:28:15.556Z,100537.00
2019-02-04T02:30:45.191Z,100534.00
2019-02-04T02:33:14.706Z,100535.00
2019-02-04T02:35:44.314Z,100533.00
2019-02-04T02:38:13.646Z,100530.00
2019-02-04T02:40:43.616Z,100533.00
2019-02-04T02:43:13.064Z,100540.00
2019-02-04T02:45:42.449Z,100550.00
2019-02-04T02:48:11.858Z,100554.00
2019-02-04T02:50:41.343Z,100555.00
2019-02-04T02:53:10.617Z,100555.00
2019-02-04T02:55:40.158Z,100563.00
2019-02-04T02:58:09.549Z,100571.00
2019-02-04T03:00:38.955Z,100568.00
2019-02-04T03:03:08.166Z,100571.00
2019-02-04T03:05:37.662Z,100577.00
2019-02-04T03:08:07.205Z,100568.00
2019-02-04T03:10:36.382Z,100593.00
2019-02-04T03:13:05.680Z,100592.00
2019-02-04T03:15:34.876Z,100593.00
2019-02-04T03:18:04.179Z,100590.00
2019-02-04T03:20:33.890Z,100595.00
2019-02-04T03:23:03.397Z,100598.00
2019-02-04T03:25:32.721Z,100611.00
2019-02-04T03:28:01.975Z,100600.00
2019-02-04T03:30:33.270Z,100611.00
2019-02-04T03:33:02.651Z,100607.00
2019-02-04T03:35:32.177Z,100623.00
2019-02-04T03:38:01.854Z,100619.00
2019-02-04T03:40:32.357Z,100624.00
2019-02-04T03:43:01.832Z,100626.00
2019-02-04T03:45:31.506Z,100634.00
2019-02-04T03:48:06.748Z,100642.00
2019-02-04T03:50:31.449Z,100646.00
2019-02-04T03:53:00.648Z,100643.00
2019-02-04T03:55:29.947Z,100638.00
2019-02-04T03:57:59.249Z,100644.00
2019-02-04T04:00:35.197Z,100641.00
2019-02-04T04:03:04.715Z,100647.00
2019-02-04T04:05:33.929Z,100646.00
2019-02-04T04:08:03.456Z,100647.00
2019-02-04T04:10:32.722Z,100647.00
2019-02-04T04:13:01.898Z,100651.00
2019-02-04T04:15:31.838Z,100650.00
2019-02-04T04:18:01.839Z,100655.00
2019-02-04T04:20:31.245Z,100661.00
2019-02-04T04:23:00.457Z,100658.00
2019-02-04T04:25:31.347Z,100672.00
2019-02-04T04:28:00.597Z,100667.00
2019-02-04T04:30:30.000Z,100668.00
2019-02-04T04:32:59.507Z,100666.00
2019-02-04T04:35:28.709Z,100668.00
2019-02-04T04:37:58.204Z,100677.00
2019-02-04T04:40:27.728Z,100665.00
2019-02-04T04:42:57.125Z,100674.00
2019-02-04T04:45:27.637Z,100678.00
2019-02-04T04:47:56.853Z,100683.00
2019-02-04T04:50:26.467Z,100682.00
2019-02-04T04:52:55.761Z,100683.00
2019-02-04T04:55:26.411Z,100688.00
2019-02-04T04:57:56.299Z,100689.00
2019-02-04T05:00:28.828Z,100695.00
2019-02-04T05:02:58.575Z,100690.00
2019-02-04T05:05:28.006Z,100692.00
2019-02-04T05:07:57.304Z,100697.00
2019-02-04T05:10:27.007Z,100697.00
2019-02-04T05:12:56.628Z,100695.00
2019-02-04T05:15:27.605Z,100705.00
2019-02-04T05:17:56.969Z,100711.00
2019-02-04T05:20:26.167Z,100719.00
2019-02-04T05:22:55.390Z,100720.00
2019-02-04T05:25:31.830Z,100716.00
2019-02-04T05:28:01.333Z,100720.00
2019-02-04T05:30:30.839Z,100723.00
2019-02-04T05:33:00.254Z,100716.00
2019-02-04T05:35:29.639Z,100717.00
2019-02-04T05:37:59.065Z,100715.00
2019-02-04T05:40:28.994Z,100716.00
2019-02-04T05:42:58.382Z,100718.00
2019-02-04T05:45:27.698Z,100727.00
2019-02-04T05:47:56.985Z,100728.00
2019-02-04T05:50:26.215Z,100726.00
2019-02-04T05:52:55.585Z,100727.00
2019-02-04T05:55:25.595Z,100730.00
2019-02-04T05:57:54.803Z,100727.00
2019-02-04T06:00:27.794Z,100732.00
2019-02-04T06:02:57.511Z,100736.00
2019-02-04T06:05:26.767Z,100736.00
2019-02-04T06:07:56.005Z,100730.00
2019-02-04T06:10:25.206Z,100728.00
2019-02-04T06:12:54.582Z,100738.00
2019-02-04T06:15:23.865Z,100742.00
2019-02-04T06:17:53.042Z,100752.00
2019-02-04T06:20:25.265Z,100760.00
2019-02-04T06:22:54.800Z,100749.00
2019-02-04T06:25:24.232Z,100760.00
2019-02-04T06:27:53.488Z,100757.00
2019-02-04T06:30:22.894Z,100751.00
2019-02-04T06:32:52.193Z,100754.00
2019-02-04T06:35:21.801Z,100759.00
2019-02-04T06:37:51.001Z,100763.00
2019-02-04T06:40:20.599Z,100768.00
2019-02-04T06:42:49.915Z,100770.00
2019-02-04T06:45:19.899Z,100768.00
2019-02-04T06:47:49.448Z,100773.00
2019-02-04T06:50:20.684Z,100777.00
2019-02-04T06:52:49.881Z,100776.00
2019-02-04T06:55:31.994Z,100777.00
2019-02-04T06:58:01.477Z,100778.00
2019-02-04T07:00:30.816Z,100777.00
2019-02-04T07:03:00.592Z,100785.00
2019-02-04T07:05:29.808Z,100786.00
2019-02-04T07:07:59.004Z,100785.00
2019-02-04T07:10:28.624Z,100790.00
2019-02-04T07:12:57.810Z,100792.00
2019-02-04T07:15:27.408Z,100792.00
2019-02-04T07:18:01.961Z,100797.00
2019-02-04T07:20:28.996Z,100800.00
2019-02-04T07:22:58.194Z,100798.00
2019-02-04T07:25:27.391Z,100799.00
2019-02-04T07:27:56.808Z,100800.00
2019-02-04T07:30:28.376Z,100805.00
2019-02-04T07:32:58.257Z,100809.00
2019-02-04T07:35:27.672Z,100808.00
2019-02-04T07:37:56.971Z,100820.00
2019-02-04T07:40:32.986Z,100809.00
2019-02-04T07:43:02.602Z,100817.00
2019-02-04T07:45:32.134Z,100803.00
2019-02-04T07:48:01.538Z,100811.00
2019-02-04T07:50:30.753Z,100814.00
2019-02-04T07:53:00.355Z,100828.00
2019-02-04T07:55:29.749Z,100827.00
2019-02-04T07:57:59.168Z,100824.00
2019-02-04T08:00:32.895Z,100825.00
2019-02-04T08:03:02.465Z,100822.00
2019-02-04T08:05:32.183Z,100822.00
2019-02-04T08:08:01.303Z,100819.00
2019-02-04T08:10:30.777Z,100824.00
2019-02-04T08:13:01.907Z,100826.00
2019-02-04T08:15:33.890Z,100818.00
2019-02-04T08:18:03.603Z,100831.00
2019-02-04T08:20:33.119Z,100839.00
2019-02-04T08:23:02.523Z,100836.00
2019-02-04T08:25:31.823Z,100828.00
2019-02-04T08:28:01.128Z,100831.00
2019-02-04T08:30:38.077Z,100834.00
2019-02-04T08:33:07.717Z,100827.00
2019-02-04T08:35:37.220Z,100832.00
2019-02-04T08:38:06.719Z,100832.00
2019-02-04T08:40:36.842Z,100831.00
2019-02-04T08:43:06.204Z,100833.00
2019-02-04T08:45:35.806Z,100831.00
2019-02-04T08:48:06.593Z,100833.00
2019-02-04T08:50:36.003Z,100838.00
2019-02-04T08:53:05.444Z,100835.00
2019-02-04T08:55:35.219Z,100853.00
2019-02-04T08:58:04.930Z,100845.00
2019-02-04T09:00:34.530Z,100851.00
2019-02-04T09:03:04.073Z,100854.00
2019-02-04T09:05:33.540Z,100857.00
2019-02-04T09:08:02.729Z,100854.00
2019-02-04T09:10:33.945Z,100857.00
2019-02-04T09:13:03.491Z,100847.00
2019-02-04T09:15:32.709Z,100856.00
2019-02-04T09:18:02.542Z,100856.00
2019-02-04T09:20:32.009Z,100855.00
2019-02-04T09:23:01.225Z,100853.00
2019-02-04T09:25:30.932Z,100854.00
2019-02-04T09:28:00.541Z,100858.00
2019-02-04T09:30:29.742Z,100854.00
2019-02-04T09:33:02.311Z,100848.00
2019-02-04T09:35:31.520Z,100857.00
2019-02-04T09:38:00.929Z,100853.00
2019-02-04T09:40:40.243Z,100856.00
2019-02-04T09:43:09.783Z,100858.00
2019-02-04T09:45:39.782Z,100864.00
2019-02-04T09:48:16.388Z,100857.00
2019-02-04T09:50:48.669Z,100874.00
2019-02-04T09:53:17.829Z,100867.00
2019-02-04T09:55:47.235Z,100872.00
2019-02-04T09:58:16.753Z,100870.00
2019-02-04T10:00:46.067Z,100877.00
2019-02-04T10:03:15.540Z,100868.00
2019-02-04T10:05:45.372Z,100880.00
2019-02-04T10:08:15.171Z,100880.00
2019-02-04T10:10:44.472Z,100879.00
2019-02-04T10:13:13.676Z,100870.00
2019-02-04T10:15:45.872Z,100878.00
2019-02-04T10:18:15.881Z,100875.00
2019-02-04T10:20:45.459Z,100860.00
2019-02-04T10:23:14.891Z,100865.00
2019-02-04T10:25:44.439Z,100861.00
2019-02-04T10:28:15.909Z,100858.00
2019-02-04T10:30:45.655Z,100871.00
2019-02-04T10:33:15.805Z,100868.00
2019-02-04T10:35:45.302Z,100863.00
2019-02-04T10:38:16.486Z,100866.00
2019-02-04T10:40:45.905Z,100867.00
2019-02-04T10:43:15.124Z,100860.00
2019-02-04T10:45:44.288Z,100868.00
2019-02-04T10:48:13.836Z,100868.00
2019-02-04T10:50:46.983Z,100861.00
2019-02-04T10:53:14.448Z,100858.00
2019-02-04T10:55:44.077Z,100865.00
2019-02-04T10:58:14.513Z,100858.00
2019-02-04T11:00:43.815Z,100854.00
2019-02-04T11:03:13.326Z,100845.00
2019-02-04T11:05:44.599Z,100843.00
2019-02-04T11:08:17.235Z,100843.00
2019-02-04T11:10:46.831Z,100844.00
2019-02-04T11:13:16.936Z,100846.00
2019-02-04T11:15:46.433Z,100847.00
2019-02-04T11:18:16.533Z,100839.00
2019-02-04T11:20:57.091Z,100833.00
2019-02-04T11:23:16.857Z,100835.00
2019-02-04T11:25:46.260Z,100844.00
2019-02-04T11:28:16.209Z,100837.00
2019-02-04T11:30:55.649Z,100843.00
2019-02-04T11:33:25.113Z,100843.00
2019-02-04T11:35:54.760Z,100830.00
2019-02-04T11:38:24.545Z,100824.00
2019-02-04T11:40:54.279Z,100830.00
2019-02-04T11:43:23.782Z,100824.00
2019-02-04T11:45:55.099Z,100829.00
2019-02-04T11:48:24.352Z,100823.00
2019-02-04T11:50:53.806Z,100829.00
2019-02-04T11:53:32.583Z,100827.00
2019-02-04T11:55:54.451Z,100836.00
2019-02-04T11:58:23.847Z,100828.00
2019-02-04T12:00:53.666Z,100821.00
2019-02-04T12:03:22.976Z,100826.00
2019-02-04T12:05:52.483Z,100823.00
2019-02-04T12:08:21.686Z,100811.00
2019-02-04T12:10:57.434Z,100812.00
2019-02-04T12:13:26.930Z,100807.00
2019-02-04T12:15:57.472Z,100807.00
2019-02-04T12:18:26.938Z,100804.00
2019-02-04T12:20:56.893Z,100796.00
2019-02-04T12:23:26.297Z,100810.00
2019-02-04T12:25:55.509Z,100801.00
2019-02-04T12:28:24.885Z,100801.00
2019-02-04T12:30:54.737Z,100795.00
2019-02-04T12:33:24.623Z,100803.00
2019-02-04T12:35:54.142Z,100808.00
2019-02-04T12:38:23.338Z,100791.00
2019-02-04T12:40:52.728Z,100789.00
2019-02-04T12:43:22.041Z,100797.00
2019-02-04T12:45:51.633Z,100796.00
2019-02-04T12:48:21.674Z,100778.00
2019-02-04T12:50:51.071Z,100790.00
2019-02-04T12:53:20.464Z,100794.00
2019-02-04T12:55:49.861Z,100782.00
2019-02-04T12:58:19.283Z,100796.00
2019-02-04T13:00:48.604Z,100797.00
2019-02-04T13:03:17.783Z,100794.00
2019-02-04T13:05:51.058Z,100795.00
2019-02-04T13:08:20.382Z,100792.00
2019-02-04T13:10:49.877Z,100792.00
2019-02-04T13:13:20.022Z,100790.00
2019-02-04T13:15:49.696Z,100796.00
2019-02-04T13:18:19.020Z,100792.00
2019-02-04T13:20:48.633Z,100797.00
2019-02-04T13:23:18.017Z,100792.00
2019-02-04T13:25:47.232Z,100783.00
2019-02-04T13:28:16.739Z,100779.00
2019-02-04T13:30:46.235Z,100787.00
2019-02-04T13:33:15.647Z,100786.00
2019-02-04T13:35:45.051Z,100779.00
2019-02-04T13:38:14.753Z,100780.00
2019-02-04T13:40:44.835Z,100784.00
2019-02-04T13:43:14.695Z,100772.00
2019-02-04T13:45:44.305Z,100772.00
2019-02-04T13:48:13.917Z,100770.00
2019-02-04T13:50:43.117Z,100771.00
2019-02-04T13:53:12.415Z,100778.00
2019-02-04T13:55:42.315Z,100775.00
2019-02-04T13:58:11.734Z,100774.00
2019-02-04T14:01:05.492Z,100762.00
2019-02-04T14:03:35.001Z,100763.00
2019-02-04T14:06:05.073Z,100758.00
2019-02-04T14:08:34.426Z,100766.00
2019-02-04T14:11:03.612Z,100758.00
2019-02-04T14:13:33.029Z,100764.00
2019-02-04T14:16:02.810Z,100771.00
2019-02-04T14:18:32.667Z,100758.00
2019-02-04T14:21:02.073Z,100752.00
2019-02-04T14:23:31.265Z,100753.00
2019-02-04T14:26:00.779Z,100747.00
2019-02-04T14:28:31.451Z,100747.00
2019-02-04T14:31:01.356Z,100745.00
2019-02-04T14:33:30.860Z,100746.00
2019-02-04T14:36:00.331Z,100746.00
2019-02-04T14:38:29.874Z,100741.00
2019-02-04T14:40:59.453Z,100739.00
2019-02-04T14:43:30.876Z,100739.00
2019-02-04T14:46:05.526Z,100743.00
2019-02-04T14:48:53.061Z,100740.00
2019-02-04T14:51:47.864Z,100742.00
2019-02-04T14:54:37.660Z,100742.00
2019-02-04T14:57:36.932Z,100740.00
2019-02-04T15:00:18.230Z,100744.00
2019-02-04T15:03:19.484Z,100742.00
2019-02-04T15:05:47.176Z,100729.00
2019-02-04T15:08:58.019Z,100741.00
2019-02-04T15:11:30.499Z,100744.00
2019-02-04T15:14:08.609Z,100745.00
2019-02-04T15:16:45.384Z,100743.00
2019-02-04T15:19:37.713Z,100741.00
2019-02-04T15:22:33.447Z,100734.00
2019-02-04T15:25:17.329Z,100737.00
2019-02-04T15:28:12.246Z,100739.00
2019-02-04T15:31:01.356Z,100735.00
2019-02-04T15:33:35.441Z,100720.00
2019-02-04T15:36:18.263Z,100723.00
2019-02-04T15:38:53.429Z,100718.00
2019-02-04T15:41:38.193Z,100717.00
2019-02-04T15:44:12.403Z,100712.00
2019-02-04T15:46:47.651Z,100716.00
2019-02-04T15:49:32.212Z,100717.00
2019-02-04T15:52:02.319Z,100716.00
2019-02-04T15:54:31.828Z,100728.00
2019-02-04T15:57:01.292Z,100723.00
2019-02-04T15:59:30.804Z,100728.00
2019-02-04T16:02:00.050Z,100717.00
2019-02-04T16:04:34.840Z,100721.00
2019-02-04T16:07:07.047Z,100727.00
2019-02-04T16:09:36.353Z,100720.00
2019-02-04T16:12:06.061Z,100720.00
2019-02-04T16:14:35.758Z,100718.00
2019-02-04T16:17:07.071Z,100721.00
2019-02-04T16:19:36.449Z,100726.00
2019-02-04T16:22:05.724Z,100722.00
2019-02-04T16:24:35.128Z,100724.00
2019-02-04T16:27:05.053Z,100715.00
2019-02-04T16:29:34.641Z,100713.00
2019-02-04T16:32:05.262Z,100719.00
2019-02-04T16:34:34.586Z,100712.00
2019-02-04T16:37:03.986Z,100720.00
2019-02-04T16:39:33.193Z,100716.00
2019-02-04T16:42:02.493Z,100714.00
2019-02-04T16:44:31.898Z,100717.00
2019-02-04T16:47:01.097Z,100720.00
2019-02-04T16:49:30.761Z,100712.00
2019-02-04T16:52:00.197Z,100723.00
2019-02-04T16:54:29.408Z,100724.00
2019-02-04T16:56:58.797Z,100716.00
2019-02-04T16:59:28.312Z,100717.00
2019-02-04T17:01:57.723Z,100716.00
2019-02-04T17:04:27.213Z,100718.00
2019-02-04T17:06:56.724Z,100716.00
2019-02-04T17:09:26.042Z,100722.00
2019-02-04T17:11:55.850Z,100719.00
2019-02-04T17:14:25.242Z,100718.00
2019-02-04T17:16:55.478Z,100710.00
2019-02-04T17:19:24.921Z,100717.00
2019-02-04T17:21:54.390Z,100713.00
2019-02-04T17:24:23.893Z,100719.00
2019-02-04T17:26:54.110Z,100713.00
2019-02-04T17:29:23.507Z,100712.00
2019-02-04T17:31:53.023Z,100718.00
2019-02-04T17:34:23.659Z,100705.00
2019-02-04T17:36:53.055Z,100709.00
2019-02-04T17:39:22.298Z,100713.00
2019-02-04T17:41:52.689Z,100715.00
2019-02-04T17:44:21.889Z,100711.00
2019-02-04T17:46:51.388Z,100711.00
2019-02-04T17:49:20.602Z,100710.00
2019-02-04T17:51:50.106Z,100701.00
2019-02-04T17:54:19.307Z,100706.00
2019-02-04T17:56:48.719Z,100707.00
2019-02-04T17:59:18.742Z,100703.00
2019-02-04T18:01:48.111Z,100703.00
2019-02-04T18:04:17.562Z,100705.00
2019-02-04T18:06:46.936Z,100708.00
2019-02-04T18:09:16.432Z,100713.00
2019-02-04T18:11:45.835Z,100712.00
2019-02-04T18:14:15.147Z,100726.00
2019-02-04T18:16:44.447Z,100711.00
2019-02-04T18:19:13.852Z,100717.00
2019-02-04T18:21:43.053Z,100714.00
2019-02-04T18:24:12.566Z,100714.00
2019-02-04T18:26:41.756Z,100716.00
2019-02-04T18:29:11.255Z,100709.00
2019-02-04T18:31:40.761Z,100709.00
2019-02-04T18:34:09.967Z,100711.00
2019-02-04T18:36:39.167Z,100708.00
2019-02-04T18:39:09.186Z,100707.00
2019-02-04T18:41:38.578Z,100711.00
2019-02-04T18:44:07.791Z,100710.00
2019-02-04T18:46:37.594Z,100710.00
2019-02-04T18:49:07.302Z,100702.00
2019-02-04T18:51:36.717Z,100697.00
2019-02-04T18:54:06.019Z,100706.00
2019-02-04T18:56:35.140Z,100713.00
2019-02-04T18:59:04.417Z,100710.00
2019-02-04T19:01:33.978Z,100709.00
2019-02-04T19:04:03.327Z,100706.00
2019-02-04T19:06:32.838Z,100710.00
2019-02-04T19:09:02.347Z,100707.00
2019-02-04T19:11:31.647Z,100701.00
2019-02-04T19:14:00.941Z,100715.00
2019-02-04T19:16:30.141Z,100697.00
2019-02-04T19:18:59.342Z,100705.00
2019-02-04T19:21:28.846Z,100706.00
2019-02-04T19:24:09.080Z,100708.00
2019-02-04T19:26:29.293Z,100707.00
2019-02-04T19:28:58.792Z,100713.00
2019-02-04T19:31:28.494Z,100709.00
2019-02-04T19:33:57.710Z,100713.00
2019-02-04T19:36:26.910Z,100711.00
2019-02-04T19:38:56.209Z,100708.00
2019-02-04T19:41:25.513Z,100709.00
2019-02-04T19:43:55.010Z,100704.00
2019-02-04T19:46:24.626Z,100709.00
2019-02-04T19:48:54.038Z,100692.00
2019-02-04T19:51:23.638Z,100701.00
2019-02-04T19:53:52.944Z,100697.00
2019-02-04T19:56:22.651Z,100704.00
2019-02-04T19:58:52.263Z,100707.00
2019-02-04T20:01:21.459Z,100699.00
2019-02-04T20:03:50.777Z,100708.00
2019-02-04T20:06:20.165Z,100700.00
2019-02-04T20:08:49.658Z,100707.00
2019-02-04T20:11:19.576Z,100711.00
2019-02-04T20:13:49.077Z,100711.00
2019-02-04T20:16:18.395Z,100701.00
2019-02-04T20:18:47.785Z,100697.00
2019-02-04T20:21:17.035Z,100706.00
2019-02-04T20:23:46.405Z,100698.00
2019-02-04T20:26:15.608Z,100703.00
2019-02-04T20:28:45.007Z,100701.00
2019-02-04T20:31:14.285Z,100702.00
2019-02-04T20:33:43.697Z,100705.00
2019-02-04T20:36:13.548Z,100694.00
2019-02-04T20:38:43.283Z,100687.00
2019-02-04T20:41:12.541Z,100681.00
2019-02-04T20:43:41.840Z,100689.00
2019-02-04T20:46:11.332Z,100688.00
2019-02-04T20:48:40.545Z,100682.00
2019-02-04T20:51:10.020Z,100681.00
2019-02-04T20:53:39.248Z,100684.00
2019-02-04T20:56:08.749Z,100688.00
2019-02-04T20:58:38.274Z,100676.00
2019-02-04T21:01:07.972Z,100680.00
2019-02-04T21:03:38.399Z,100681.00
2019-02-04T21:06:07.927Z,100674.00
2019-02-04T21:08:38.527Z,100681.00
2019-02-04T21:11:08.158Z,100676.00
2019-02-04T21:13:37.454Z,100676.00
2019-02-04T21:16:07.355Z,100674.00
2019-02-04T21:18:36.858Z,100672.00
2019-02-04T21:21:06.277Z,100677.00
2019-02-04T21:23:35.578Z,100669.00
2019-02-04T21:26:07.008Z,100674.00
2019-02-04T21:28:37.038Z,100675.00
2019-02-04T21:31:06.946Z,100668.00
2019-02-04T21:33:36.770Z,100673.00
2019-02-04T21:36:06.084Z,100667.00
2019-02-04T21:38:37.010Z,100660.00
2019-02-04T21:41:06.220Z,100659.00
2019-02-04T21:43:35.617Z,100662.00
2019-02-04T21:46:05.218Z,100659.00
2019-02-04T21:48:34.741Z,100657.00
2019-02-04T21:51:04.140Z,100652.00
2019-02-04T21:53:33.543Z,100648.00
2019-02-04T21:56:02.950Z,100667.00
2019-02-04T21:58:32.151Z,100670.00
2019-02-04T22:01:01.541Z,100664.00
2019-02-04T22:03:31.147Z,100661.00
2019-02-04T22:06:00.358Z,100673.00
2019-02-04T22:08:29.757Z,100665.00
2019-02-04T22:10:59.792Z,100661.00
2019-02-04T22:13:29.084Z,100661.00
2019-02-04T22:15:58.471Z,100666.00
2019-02-04T22:18:27.791Z,100655.00
2019-02-04T22:20:57.091Z,100657.00
2019-02-04T22:23:26.584Z,100657.00
2019-02-04T22:25:56.397Z,100646.00
2019-02-04T22:28:25.908Z,100640.00
2019-02-04T22:30:55.820Z,100646.00
2019-02-04T22:33:25.235Z,100638.00
2019-02-04T22:35:54.537Z,100640.00
2019-02-04T22:38:24.035Z,100634.00
2019-02-04T22:40:53.242Z,100634.00
2019-02-04T22:43:23.039Z,100643.00
2019-02-04T22:45:52.549Z,100652.00
2019-02-04T22:48:22.273Z,100647.00
2019-02-04T22:50:51.472Z,100637.00
2019-02-04T22:53:20.672Z,100643.00
2019-02-04T22:55:50.060Z,100636.00
2019-02-04T22:58:19.275Z,100636.00
2019-02-04T23:01:09.567Z,100634.00
2019-02-04T23:03:39.057Z,100635.00
2019-02-04T23:06:08.273Z,100633.00
2019-02-04T23:08:37.661Z,100634.00
2019-02-04T23:11:07.222Z,100637.00
2019-02-04T23:13:40.567Z,100629.00
2019-02-04T23:16:09.784Z,100638.00
2019-02-04T23:18:39.171Z,100627.00
2019-02-04T23:21:08.489Z,100636.00
2019-02-04T23:23:37.876Z,100635.00
2019-02-04T23:26:07.089Z,100640.00
2019-02-04T23:28:36.697Z,100636.00
2019-02-04T23:31:06.705Z,100629.00
2019-02-04T23:33:36.314Z,100620.00
2019-02-04T23:36:06.527Z,100627.00
2019-02-04T23:38:36.046Z,100632.00
2019-02-04T23:41:06.165Z,100631.00
2019-02-04T23:43:35.670Z,100626.00
2019-02-04T23:46:04.982Z,100620.00
2019-02-04T23:48:34.371Z,100616.00
2019-02-04T23:51:03.775Z,100619.00
2019-02-04T23:53:32.996Z,100616.00
2019-02-04T23:56:02.599Z,100616.00
2019-02-04T23:58:31.801Z,100616.00
